Uni Wealth — VRFV4 — position and weather

sailwx.info

Track history (hours):
 
Tides and Currents Weather Stations Pressure Air Temp Water Temp Dewpoint Dewpoint Depression Visibility Wind Speed Wind Dir Waves Ship Positions

Uni Wealth

Last reported at 2015-May-30 23:27 UTC. Time now 2015-Jul-07 04:40 UTC.
Position N 29°49' W 090°00'.
Warning: this ship's position is 37 days out of date.

Length 170 m; draft 10.3 m.

Type: Cargo ship. MMSI: 477621200.

Date/timePositionNaut miles runAvg speedWind from/ knotsBaromVisibWave heightAir tempDewpointWater temp
2015-May-30 23:27N 29°49' W 090°00'7 7.4
2015-May-30 22:31N 29°55' W 089°57'8 8.5
2015-May-30 21:32N 29°55' W 090°07'  
2015-May-27 23:25N 29°58' W 090°17'0 0.0
2015-May-27 22:31N 29°58' W 090°17'0 0.0
2015-May-27 21:31N 29°58' W 090°17'4 0.2
2015-May-26 20:23N 29°55' W 090°13'  
2015-May-21 16:23N 29°21' W 094°47'911.0
2015-May-21 15:33N 29°29' W 094°52'1211.8
2015-May-21 14:33N 29°39' W 094°58'8 8.1
2015-May-21 13:34N 29°46' W 095°04'5 4.8
2015-May-21 12:32N 29°45' W 095°10'0 0.0
2015-May-21 11:32N 29°45' W 095°10'0 0.0
2015-May-21 10:32N 29°45' W 095°10'0 0.0
2015-May-21 09:32N 29°45' W 095°10'0 0.0
2015-May-21 08:32N 29°45' W 095°10'0 0.0
2015-May-21 07:32N 29°45' W 095°10'0 0.0
2015-May-21 06:32N 29°45' W 095°10'0 0.0
2015-May-21 05:29N 29°45' W 095°10'0 0.0
2015-May-21 04:32N 29°45' W 095°10'0 0.0
2015-May-21 03:32N 29°45' W 095°10'0 0.0
2015-May-21 02:32N 29°45' W 095°10'0 0.0
2015-May-21 01:32N 29°45' W 095°10'0 0.0
2015-May-21 00:32N 29°45' W 095°10'0 0.0
2015-May-20 23:29N 29°45' W 095°10'  
Track history (hours):
 
Tides and Currents Weather Stations Pressure Air Temp Water Temp Dewpoint Dewpoint Depression Visibility Wind Speed Wind Dir Waves Ship Positions

Uni Wealth

Last reported at 2015-May-30 23:27 UTC. Time now 2015-Jul-07 04:40 UTC.
Position N 29°49' W 090°00'.
Warning: this ship's position is 37 days out of date.

Length 170 m; draft 10.3 m.

Type: Cargo ship. MMSI: 477621200.

Date/timePositionNaut miles runAvg speedWind from/ knotsBaromVisibWave heightAir tempDewpointWater temp
2015-May-30 23:27N 29°49' W 090°00'7 7.4
2015-May-30 22:31N 29°55' W 089°57'8 8.5
2015-May-30 21:32N 29°55' W 090°07'  
2015-May-27 23:25N 29°58' W 090°17'0 0.0
2015-May-27 22:31N 29°58' W 090°17'0 0.0
2015-May-27 21:31N 29°58' W 090°17'4 0.2
2015-May-26 20:23N 29°55' W 090°13'  
2015-May-21 16:23N 29°21' W 094°47'911.0
2015-May-21 15:33N 29°29' W 094°52'1211.8
2015-May-21 14:33N 29°39' W 094°58'8 8.1
2015-May-21 13:34N 29°46' W 095°04'5 4.8
2015-May-21 12:32N 29°45' W 095°10'0 0.0
2015-May-21 11:32N 29°45' W 095°10'0 0.0
2015-May-21 10:32N 29°45' W 095°10'0 0.0
2015-May-21 09:32N 29°45' W 095°10'0 0.0
2015-May-21 08:32N 29°45' W 095°10'0 0.0
2015-May-21 07:32N 29°45' W 095°10'0 0.0
2015-May-21 06:32N 29°45' W 095°10'0 0.0
2015-May-21 05:29N 29°45' W 095°10'0 0.0
2015-May-21 04:32N 29°45' W 095°10'0 0.0
2015-May-21 03:32N 29°45' W 095°10'0 0.0
2015-May-21 02:32N 29°45' W 095°10'0 0.0
2015-May-21 01:32N 29°45' W 095°10'0 0.0
2015-May-21 00:32N 29°45' W 095°10'0 0.0
2015-May-20 23:29N 29°45' W 095°10'  

Dump ship's entire track history